St Lucie County International Airport
KFPR : now visible

Airfield :











YOU CAN JOIN US ON...

 
LOGIN :

Register | Disclaimer

   EN    FR    IT 

 









Legend :    VFR   Marginal VFR   IFR   Intensive IFR   Very Intensive IFR
Visi :
Ceiling :
>= 8 km
>= 3000ft
5 to 8 km
1000 to 3000 ft
1500m to 5 km
500 to 1000 ft
800 to 1500m
200 to 500 ft
< 800m
< 200 ft
Symbols :   Thunderstorms  Fog  Heavy snow  Heavy precipitations  Wind > 20 kt






- Airport Elevation : 24 ft
- IATA code : FPR


KFPR - St Lucie County International

CURRENT METAR :
  • 031410Z 20012G17KT 10SM BKN017 BKN026 27/23 A3003 RMK AO2 LTG DSNT S RAE1354 P0000 T02720233

EXPIRED METARs :
  • 031400Z 23007KT 10SM VCTS SCT015 BKN020 BKN028 29/25 A3002 RMK AO2 LTG DSNT SW RAE1354 P0000 T02890250
  • 031353Z 23004KT 10SM VCTS -RA SCT015 SCT028 SCT042 29/25 A3002 RMK AO2 LTG DSNT SW RAB45 SLP163 P0000 T02890250
  • 031253Z 21007KT 10SM FEW034 28/26 A3003 RMK AO2 SLP167 T02830256
  • 031153Z 19004KT 10SM SCT020 26/25 A3002 RMK AO2 SLP163 70047 T02610250 10261 20244 51008
  • 031148Z 19004KT 10SM SCT020 26/24 A3001 RMK AO2
  • 031140Z 18003KT 10SM BKN020 26/24 A3002 RMK AO2 T02560244

TAF KFPR
Valid from the 03 at 14:00 until the 04 at 12:00 UTC


031346Z 0314/0412 21008KT P6SM VCTS SCT030CB SCT250
FM031800 16014G20KT P6SM VCTS SCT040CB SCT080 BKN250
TEMPO 0319/0322 3SM TSRA BKN025CB OVC050
FM032300 20006KT P6SM VCSH SCT050 SCT120 BKN250
FM040400 19005KT P6SM SCT020 BKN250
KZMA FIR / North America



MET'MAP, your aeronautical weather chart ! - Copyright ORBIFLY December 2007 - Disclaimer

ORBIFLY MET'MAP TEAM :

Programming & Development : Alexandra Zaïnal
Concept & original design : Baudouin d'Aumeries
Assistance for programming : Marc-Olivier Méhu
Technical & hardware support : Manuel Goepfert

Contact : metmap@orbifly.com




SOURCES & CREDITS :

   NOAA       Earth
Advisory